sensor_id;sensor_type;location;lat;lon;timestamp;P1;durP1;ratioP1;P2;durP2;ratioP2
70138;SDS011;57507;43.056;0.150;2022-08-19T00:11:01;2.78;;;0.77;;
70138;SDS011;57507;43.056;0.150;2022-08-19T00:13:48;0.85;;;0.80;;
70138;SDS011;57507;43.056;0.150;2022-08-19T00:19:16;1.55;;;1.00;;
70138;SDS011;57507;43.056;0.150;2022-08-19T00:21:48;1.17;;;0.90;;
70138;SDS011;57507;43.056;0.150;2022-08-19T00:24:15;2.55;;;0.90;;
70138;SDS011;57507;43.056;0.150;2022-08-19T00:26:42;1.13;;;0.73;;
70138;SDS011;57507;43.056;0.150;2022-08-19T00:31:49;4.47;;;1.00;;
70138;SDS011;57507;43.056;0.150;2022-08-19T00:34:45;2.03;;;0.90;;
70138;SDS011;57507;43.056;0.150;2022-08-19T00:39:56;2.47;;;1.02;;
70138;SDS011;57507;43.056;0.150;2022-08-19T00:45:26;1.58;;;1.05;;
70138;SDS011;57507;43.056;0.150;2022-08-19T00:48:04;0.75;;;0.60;;
70138;SDS011;57507;43.056;0.150;2022-08-19T00:50:32;0.80;;;0.80;;
70138;SDS011;57507;43.056;0.150;2022-08-19T00:53:02;1.17;;;0.98;;
70138;SDS011;57507;43.056;0.150;2022-08-19T00:55:53;2.53;;;0.93;;
70138;SDS011;57507;43.056;0.150;2022-08-19T00:58:21;0.95;;;0.70;;
70138;SDS011;57507;43.056;0.150;2022-08-19T01:00:56;1.02;;;0.70;;
70138;SDS011;57507;43.056;0.150;2022-08-19T01:03:35;1.88;;;0.80;;
70138;SDS011;57507;43.056;0.150;2022-08-19T01:06:05;0.68;;;0.68;;
70138;SDS011;57507;43.056;0.150;2022-08-19T01:08:34;1.27;;;0.70;;
70138;SDS011;57507;43.056;0.150;2022-08-19T01:11:03;1.52;;;0.90;;
70138;SDS011;57507;43.056;0.150;2022-08-19T01:17:00;2.20;;;0.90;;
70138;SDS011;57507;43.056;0.150;2022-08-19T01:19:57;1.73;;;0.73;;
70138;SDS011;57507;43.056;0.150;2022-08-19T01:28:23;2.30;;;0.88;;
70138;SDS011;57507;43.056;0.150;2022-08-19T01:37:26;2.45;;;0.70;;
70138;SDS011;57507;43.056;0.150;2022-08-19T01:39:55;2.30;;;1.00;;
70138;SDS011;57507;43.056;0.150;2022-08-19T01:49:14;3.35;;;1.00;;
70138;SDS011;57507;43.056;0.150;2022-08-19T01:54:57;2.85;;;1.00;;
70138;SDS011;57507;43.056;0.150;2022-08-19T01:57:32;1.95;;;0.90;;
70138;SDS011;57507;43.056;0.150;2022-08-19T02:05:58;3.05;;;1.00;;
70138;SDS011;57507;43.056;0.150;2022-08-19T02:08:28;2.25;;;1.00;;
70138;SDS011;57507;43.056;0.150;2022-08-19T02:10:54;2.63;;;0.98;;
70138;SDS011;57507;43.056;0.150;2022-08-19T02:13:21;0.75;;;0.75;;
70138;SDS011;57507;43.056;0.150;2022-08-19T02:15:47;2.80;;;0.80;;
70138;SDS011;57507;43.056;0.150;2022-08-19T02:18:13;2.03;;;0.93;;
70138;SDS011;57507;43.056;0.150;2022-08-19T02:20:41;1.60;;;1.00;;
70138;SDS011;57507;43.056;0.150;2022-08-19T02:23:12;1.27;;;0.80;;
70138;SDS011;57507;43.056;0.150;2022-08-19T02:26:24;2.20;;;1.10;;
70138;SDS011;57507;43.056;0.150;2022-08-19T02:28:31;3.78;;;1.00;;
70138;SDS011;57507;43.056;0.150;2022-08-19T02:31:01;2.67;;;1.05;;
70138;SDS011;57507;43.056;0.150;2022-08-19T02:33:28;1.75;;;1.00;;
70138;SDS011;57507;43.056;0.150;2022-08-19T02:35:56;1.08;;;0.90;;
70138;SDS011;57507;43.056;0.150;2022-08-19T02:38:25;5.00;;;1.05;;
70138;SDS011;57507;43.056;0.150;2022-08-19T02:40:56;3.63;;;1.30;;
70138;SDS011;57507;43.056;0.150;2022-08-19T02:43:23;2.92;;;1.10;;
70138;SDS011;57507;43.056;0.150;2022-08-19T02:45:49;3.70;;;1.20;;
70138;SDS011;57507;43.056;0.150;2022-08-19T02:48:20;3.17;;;1.20;;
70138;SDS011;57507;43.056;0.150;2022-08-19T02:50:46;3.35;;;1.38;;
70138;SDS011;57507;43.056;0.150;2022-08-19T02:53:20;2.35;;;1.27;;
70138;SDS011;57507;43.056;0.150;2022-08-19T02:55:50;2.75;;;1.55;;
70138;SDS011;57507;43.056;0.150;2022-08-19T02:58:16;4.32;;;1.73;;
70138;SDS011;57507;43.056;0.150;2022-08-19T03:00:47;1.90;;;1.35;;
70138;SDS011;57507;43.056;0.150;2022-08-19T03:03:19;3.80;;;1.70;;
70138;SDS011;57507;43.056;0.150;2022-08-19T03:05:48;2.92;;;1.45;;
70138;SDS011;57507;43.056;0.150;2022-08-19T03:08:17;3.92;;;1.40;;
70138;SDS011;57507;43.056;0.150;2022-08-19T03:10:47;3.03;;;1.40;;
70138;SDS011;57507;43.056;0.150;2022-08-19T03:13:18;2.28;;;1.00;;
70138;SDS011;57507;43.056;0.150;2022-08-19T03:18:52;1.33;;;1.00;;
70138;SDS011;57507;43.056;0.150;2022-08-19T03:21:20;1.23;;;0.98;;
70138;SDS011;57507;43.056;0.150;2022-08-19T03:23:49;2.53;;;1.10;;
70138;SDS011;57507;43.056;0.150;2022-08-19T03:26:15;0.60;;;0.43;;
70138;SDS011;57507;43.056;0.150;2022-08-19T03:28:45;0.70;;;0.50;;
70138;SDS011;57507;43.056;0.150;2022-08-19T03:31:16;1.40;;;0.70;;
70138;SDS011;57507;43.056;0.150;2022-08-19T03:33:42;0.70;;;0.52;;
70138;SDS011;57507;43.056;0.150;2022-08-19T03:36:50;1.25;;;0.63;;
70138;SDS011;57507;43.056;0.150;2022-08-19T03:39:23;0.50;;;0.50;;
70138;SDS011;57507;43.056;0.150;2022-08-19T03:41:58;1.15;;;0.57;;
70138;SDS011;57507;43.056;0.150;2022-08-19T03:44:27;0.68;;;0.50;;
70138;SDS011;57507;43.056;0.150;2022-08-19T03:46:55;1.75;;;0.57;;
70138;SDS011;57507;43.056;0.150;2022-08-19T03:49:23;0.50;;;0.50;;
70138;SDS011;57507;43.056;0.150;2022-08-19T03:51:55;0.68;;;0.45;;
70138;SDS011;57507;43.056;0.150;2022-08-19T03:54:24;1.17;;;0.50;;
70138;SDS011;57507;43.056;0.150;2022-08-19T03:59:48;1.00;;;0.60;;
70138;SDS011;57507;43.056;0.150;2022-08-19T04:02:23;0.65;;;0.57;;
70138;SDS011;57507;43.056;0.150;2022-08-19T04:04:55;0.60;;;0.60;;
70138;SDS011;57507;43.056;0.150;2022-08-19T04:07:22;0.93;;;0.60;;
70138;SDS011;57507;43.056;0.150;2022-08-19T04:09:48;1.15;;;0.80;;
70138;SDS011;57507;43.056;0.150;2022-08-19T04:12:16;0.70;;;0.70;;
70138;SDS011;57507;43.056;0.150;2022-08-19T04:14:45;1.45;;;0.63;;
70138;SDS011;57507;43.056;0.150;2022-08-19T04:17:12;0.90;;;0.60;;
70138;SDS011;57507;43.056;0.150;2022-08-19T04:19:41;2.42;;;0.80;;
70138;SDS011;57507;43.056;0.150;2022-08-19T04:22:07;0.85;;;0.65;;
70138;SDS011;57507;43.056;0.150;2022-08-19T04:24:34;0.85;;;0.57;;
70138;SDS011;57507;43.056;0.150;2022-08-19T04:27:01;0.82;;;0.65;;
70138;SDS011;57507;43.056;0.150;2022-08-19T04:29:30;0.70;;;0.63;;
70138;SDS011;57507;43.056;0.150;2022-08-19T04:31:56;1.45;;;0.70;;
70138;SDS011;57507;43.056;0.150;2022-08-19T04:34:24;0.93;;;0.57;;
70138;SDS011;57507;43.056;0.150;2022-08-19T04:36:51;0.50;;;0.50;;
70138;SDS011;57507;43.056;0.150;2022-08-19T04:39:21;0.43;;;0.40;;
70138;SDS011;57507;43.056;0.150;2022-08-19T04:42:08;1.00;;;0.60;;
70138;SDS011;57507;43.056;0.150;2022-08-19T04:44:56;1.15;;;0.63;;
70138;SDS011;57507;43.056;0.150;2022-08-19T04:47:44;1.45;;;0.60;;
70138;SDS011;57507;43.056;0.150;2022-08-19T04:50:10;0.68;;;0.68;;
70138;SDS011;57507;43.056;0.150;2022-08-19T04:52:37;2.05;;;0.77;;
70138;SDS011;57507;43.056;0.150;2022-08-19T04:55:12;2.20;;;0.70;;
70138;SDS011;57507;43.056;0.150;2022-08-19T04:57:48;0.60;;;0.60;;
70138;SDS011;57507;43.056;0.150;2022-08-19T05:00:15;0.82;;;0.70;;
70138;SDS011;57507;43.056;0.150;2022-08-19T05:03:02;1.60;;;0.70;;
70138;SDS011;57507;43.056;0.150;2022-08-19T05:05:32;1.45;;;0.80;;
70138;SDS011;57507;43.056;0.150;2022-08-19T05:08:10;2.60;;;0.90;;
70138;SDS011;57507;43.056;0.150;2022-08-19T05:10:37;1.30;;;0.90;;
70138;SDS011;57507;43.056;0.150;2022-08-19T05:13:06;2.10;;;0.82;;
70138;SDS011;57507;43.056;0.150;2022-08-19T05:15:34;1.00;;;0.80;;
70138;SDS011;57507;43.056;0.150;2022-08-19T05:18:00;1.88;;;0.70;;
70138;SDS011;57507;43.056;0.150;2022-08-19T05:20:48;1.25;;;0.70;;
70138;SDS011;57507;43.056;0.150;2022-08-19T05:23:33;1.60;;;0.77;;
70138;SDS011;57507;43.056;0.150;2022-08-19T05:25:59;0.70;;;0.70;;
70138;SDS011;57507;43.056;0.150;2022-08-19T05:28:26;1.73;;;0.55;;
70138;SDS011;57507;43.056;0.150;2022-08-19T05:30:55;2.58;;;0.90;;
70138;SDS011;57507;43.056;0.150;2022-08-19T05:33:21;2.15;;;0.80;;
70138;SDS011;57507;43.056;0.150;2022-08-19T05:35:49;1.33;;;0.77;;
70138;SDS011;57507;43.056;0.150;2022-08-19T05:38:18;0.80;;;0.77;;
70138;SDS011;57507;43.056;0.150;2022-08-19T05:40:47;1.27;;;0.73;;
70138;SDS011;57507;43.056;0.150;2022-08-19T05:43:14;1.27;;;0.68;;
70138;SDS011;57507;43.056;0.150;2022-08-19T05:45:41;2.15;;;0.80;;
70138;SDS011;57507;43.056;0.150;2022-08-19T05:48:12;0.82;;;0.73;;
70138;SDS011;57507;43.056;0.150;2022-08-19T05:50:39;1.00;;;0.60;;
70138;SDS011;57507;43.056;0.150;2022-08-19T05:53:08;0.75;;;0.65;;
70138;SDS011;57507;43.056;0.150;2022-08-19T05:55:34;1.92;;;0.80;;
70138;SDS011;57507;43.056;0.150;2022-08-19T05:58:03;1.50;;;0.68;;
70138;SDS011;57507;43.056;0.150;2022-08-19T06:00:32;0.75;;;0.68;;
70138;SDS011;57507;43.056;0.150;2022-08-19T06:03:01;1.00;;;0.68;;
70138;SDS011;57507;43.056;0.150;2022-08-19T06:05:34;2.25;;;0.80;;
70138;SDS011;57507;43.056;0.150;2022-08-19T06:08:00;2.20;;;0.70;;
70138;SDS011;57507;43.056;0.150;2022-08-19T06:10:27;1.83;;;0.50;;
70138;SDS011;57507;43.056;0.150;2022-08-19T06:12:56;1.80;;;0.82;;
70138;SDS011;57507;43.056;0.150;2022-08-19T06:15:28;0.43;;;0.40;;
70138;SDS011;57507;43.056;0.150;2022-08-19T06:17:54;1.10;;;0.77;;
70138;SDS011;57507;43.056;0.150;2022-08-19T06:20:23;1.88;;;0.95;;
70138;SDS011;57507;43.056;0.150;2022-08-19T06:22:50;1.45;;;0.75;;
70138;SDS011;57507;43.056;0.150;2022-08-19T06:25:16;1.52;;;0.80;;
70138;SDS011;57507;43.056;0.150;2022-08-19T06:27:43;0.80;;;0.60;;
70138;SDS011;57507;43.056;0.150;2022-08-19T06:30:09;0.85;;;0.65;;
70138;SDS011;57507;43.056;0.150;2022-08-19T06:32:37;1.80;;;0.85;;
70138;SDS011;57507;43.056;0.150;2022-08-19T06:35:04;0.63;;;0.63;;
70138;SDS011;57507;43.056;0.150;2022-08-19T06:37:50;1.58;;;0.75;;
70138;SDS011;57507;43.056;0.150;2022-08-19T06:40:41;1.42;;;0.80;;
70138;SDS011;57507;43.056;0.150;2022-08-19T06:43:07;0.52;;;0.50;;
70138;SDS011;57507;43.056;0.150;2022-08-19T06:45:36;1.73;;;0.90;;
70138;SDS011;57507;43.056;0.150;2022-08-19T06:48:03;1.15;;;0.75;;
70138;SDS011;57507;43.056;0.150;2022-08-19T06:50:32;1.30;;;0.60;;
70138;SDS011;57507;43.056;0.150;2022-08-19T06:52:58;0.70;;;0.60;;
70138;SDS011;57507;43.056;0.150;2022-08-19T06:55:24;1.20;;;0.70;;
70138;SDS011;57507;43.056;0.150;2022-08-19T06:57:54;0.73;;;0.55;;
70138;SDS011;57507;43.056;0.150;2022-08-19T07:00:20;0.98;;;0.68;;
70138;SDS011;57507;43.056;0.150;2022-08-19T07:02:46;1.70;;;0.70;;
70138;SDS011;57507;43.056;0.150;2022-08-19T07:05:14;1.20;;;0.90;;
70138;SDS011;57507;43.056;0.150;2022-08-19T07:07:41;2.38;;;0.60;;
70138;SDS011;57507;43.056;0.150;2022-08-19T07:13:04;2.15;;;0.70;;
70138;SDS011;57507;43.056;0.150;2022-08-19T07:15:30;1.15;;;0.60;;
70138;SDS011;57507;43.056;0.150;2022-08-19T07:17:57;2.10;;;0.43;;
70138;SDS011;57507;43.056;0.150;2022-08-19T07:20:26;1.40;;;0.60;;
70138;SDS011;57507;43.056;0.150;2022-08-19T07:22:52;0.47;;;0.47;;
70138;SDS011;57507;43.056;0.150;2022-08-19T07:25:22;0.90;;;0.77;;
70138;SDS011;57507;43.056;0.150;2022-08-19T07:27:48;2.53;;;0.80;;
70138;SDS011;57507;43.056;0.150;2022-08-19T07:33:56;1.35;;;0.88;;
70138;SDS011;57507;43.056;0.150;2022-08-19T07:36:24;1.55;;;0.85;;
70138;SDS011;57507;43.056;0.150;2022-08-19T07:39:12;2.13;;;0.90;;
70138;SDS011;57507;43.056;0.150;2022-08-19T07:41:39;1.98;;;0.90;;
70138;SDS011;57507;43.056;0.150;2022-08-19T07:44:08;0.90;;;0.70;;
70138;SDS011;57507;43.056;0.150;2022-08-19T07:46:35;1.30;;;0.70;;
70138;SDS011;57507;43.056;0.150;2022-08-19T07:49:05;0.93;;;0.80;;
70138;SDS011;57507;43.056;0.150;2022-08-19T07:55:06;1.55;;;0.88;;
70138;SDS011;57507;43.056;0.150;2022-08-19T07:57:35;2.53;;;0.77;;
70138;SDS011;57507;43.056;0.150;2022-08-19T08:00:02;1.48;;;1.00;;
70138;SDS011;57507;43.056;0.150;2022-08-19T08:02:34;0.70;;;0.60;;
70138;SDS011;57507;43.056;0.150;2022-08-19T08:05:04;1.30;;;1.10;;
70138;SDS011;57507;43.056;0.150;2022-08-19T08:07:49;1.55;;;0.95;;
70138;SDS011;57507;43.056;0.150;2022-08-19T08:10:33;1.10;;;0.70;;
70138;SDS011;57507;43.056;0.150;2022-08-19T08:13:00;1.45;;;0.77;;
70138;SDS011;57507;43.056;0.150;2022-08-19T08:15:31;1.48;;;1.00;;
70138;SDS011;57507;43.056;0.150;2022-08-19T08:17:58;3.47;;;1.10;;
70138;SDS011;57507;43.056;0.150;2022-08-19T08:23:30;3.35;;;1.00;;
70138;SDS011;57507;43.056;0.150;2022-08-19T08:25:58;2.05;;;0.90;;
70138;SDS011;57507;43.056;0.150;2022-08-19T08:28:27;2.08;;;0.80;;
70138;SDS011;57507;43.056;0.150;2022-08-19T08:30:54;0.73;;;0.47;;
70138;SDS011;57507;43.056;0.150;2022-08-19T08:33:21;1.60;;;0.80;;
70138;SDS011;57507;43.056;0.150;2022-08-19T08:35:47;1.80;;;1.00;;
70138;SDS011;57507;43.056;0.150;2022-08-19T08:38:13;2.70;;;0.70;;
70138;SDS011;57507;43.056;0.150;2022-08-19T08:45:47;1.92;;;0.50;;
70138;SDS011;57507;43.056;0.150;2022-08-19T08:48:20;2.20;;;0.70;;
70138;SDS011;57507;43.056;0.150;2022-08-19T08:50:48;1.05;;;0.70;;
70138;SDS011;57507;43.056;0.150;2022-08-19T08:53:18;2.60;;;0.57;;
70138;SDS011;57507;43.056;0.150;2022-08-19T08:55:45;1.23;;;0.63;;
70138;SDS011;57507;43.056;0.150;2022-08-19T08:58:13;1.00;;;0.55;;
70138;SDS011;57507;43.056;0.150;2022-08-19T09:00:43;0.93;;;0.70;;
70138;SDS011;57507;43.056;0.150;2022-08-19T09:03:17;3.08;;;0.68;;
70138;SDS011;57507;43.056;0.150;2022-08-19T09:10:55;0.95;;;0.70;;
70138;SDS011;57507;43.056;0.150;2022-08-19T09:16:07;0.93;;;0.60;;
70138;SDS011;57507;43.056;0.150;2022-08-19T09:18:40;1.05;;;0.80;;
70138;SDS011;57507;43.056;0.150;2022-08-19T09:21:06;0.50;;;0.50;;
70138;SDS011;57507;43.056;0.150;2022-08-19T09:23:34;1.33;;;0.70;;
70138;SDS011;57507;43.056;0.150;2022-08-19T09:26:00;1.35;;;0.70;;
70138;SDS011;57507;43.056;0.150;2022-08-19T09:28:26;0.90;;;0.60;;
70138;SDS011;57507;43.056;0.150;2022-08-19T09:30:54;2.15;;;0.90;;
70138;SDS011;57507;43.056;0.150;2022-08-19T09:33:20;1.70;;;0.63;;
70138;SDS011;57507;43.056;0.150;2022-08-19T09:35:46;2.13;;;0.88;;
70138;SDS011;57507;43.056;0.150;2022-08-19T09:38:12;1.42;;;0.80;;
70138;SDS011;57507;43.056;0.150;2022-08-19T09:40:38;1.08;;;0.80;;
70138;SDS011;57507;43.056;0.150;2022-08-19T09:43:04;0.98;;;0.70;;
70138;SDS011;57507;43.056;0.150;2022-08-19T09:45:31;1.20;;;0.70;;
70138;SDS011;57507;43.056;0.150;2022-08-19T09:47:57;1.80;;;1.13;;
70138;SDS011;57507;43.056;0.150;2022-08-19T09:50:23;1.08;;;0.90;;
70138;SDS011;57507;43.056;0.150;2022-08-19T09:52:50;2.35;;;0.88;;
70138;SDS011;57507;43.056;0.150;2022-08-19T09:55:17;2.80;;;0.60;;
70138;SDS011;57507;43.056;0.150;2022-08-19T09:57:43;2.42;;;0.80;;
70138;SDS011;57507;43.056;0.150;2022-08-19T10:00:09;3.10;;;0.88;;
70138;SDS011;57507;43.056;0.150;2022-08-19T10:02:35;2.38;;;0.90;;
70138;SDS011;57507;43.056;0.150;2022-08-19T10:05:01;1.52;;;0.80;;
70138;SDS011;57507;43.056;0.150;2022-08-19T10:07:46;1.10;;;0.65;;
70138;SDS011;57507;43.056;0.150;2022-08-19T10:10:12;2.30;;;0.80;;
70138;SDS011;57507;43.056;0.150;2022-08-19T10:12:38;0.95;;;0.60;;
70138;SDS011;57507;43.056;0.150;2022-08-19T10:15:05;2.55;;;0.50;;
70138;SDS011;57507;43.056;0.150;2022-08-19T10:17:31;1.80;;;0.70;;
70138;SDS011;57507;43.056;0.150;2022-08-19T10:19:58;0.75;;;0.40;;
70138;SDS011;57507;43.056;0.150;2022-08-19T10:22:24;0.95;;;0.60;;
70138;SDS011;57507;43.056;0.150;2022-08-19T10:24:51;2.13;;;0.70;;
70138;SDS011;57507;43.056;0.150;2022-08-19T10:27:17;0.90;;;0.70;;
70138;SDS011;57507;43.056;0.150;2022-08-19T10:29:43;1.67;;;0.73;;
70138;SDS011;57507;43.056;0.150;2022-08-19T10:32:09;0.90;;;0.65;;
70138;SDS011;57507;43.056;0.150;2022-08-19T10:34:36;1.52;;;0.60;;
70138;SDS011;57507;43.056;0.150;2022-08-19T10:37:03;1.48;;;0.82;;
70138;SDS011;57507;43.056;0.150;2022-08-19T10:39:31;1.95;;;0.60;;
70138;SDS011;57507;43.056;0.150;2022-08-19T10:41:57;1.35;;;0.70;;
70138;SDS011;57507;43.056;0.150;2022-08-19T10:44:24;1.85;;;0.60;;
70138;SDS011;57507;43.056;0.150;2022-08-19T10:46:50;0.80;;;0.70;;
70138;SDS011;57507;43.056;0.150;2022-08-19T10:49:17;0.93;;;0.73;;
70138;SDS011;57507;43.056;0.150;2022-08-19T10:51:44;0.95;;;0.50;;
70138;SDS011;57507;43.056;0.150;2022-08-19T10:54:28;1.17;;;0.50;;
70138;SDS011;57507;43.056;0.150;2022-08-19T10:57:13;1.35;;;0.47;;
70138;SDS011;57507;43.056;0.150;2022-08-19T10:59:39;1.73;;;0.82;;
70138;SDS011;57507;43.056;0.150;2022-08-19T11:02:07;0.77;;;0.60;;
70138;SDS011;57507;43.056;0.150;2022-08-19T11:04:34;1.20;;;0.52;;
70138;SDS011;57507;43.056;0.150;2022-08-19T11:07:00;1.63;;;0.70;;
70138;SDS011;57507;43.056;0.150;2022-08-19T11:09:26;1.02;;;0.60;;
70138;SDS011;57507;43.056;0.150;2022-08-19T11:11:53;0.40;;;0.40;;
70138;SDS011;57507;43.056;0.150;2022-08-19T11:14:20;1.33;;;0.60;;
70138;SDS011;57507;43.056;0.150;2022-08-19T11:16:47;1.08;;;0.60;;
70138;SDS011;57507;43.056;0.150;2022-08-19T11:19:14;1.08;;;0.60;;
70138;SDS011;57507;43.056;0.150;2022-08-19T11:21:44;1.25;;;1.00;;
70138;SDS011;57507;43.056;0.150;2022-08-19T11:24:12;0.93;;;0.60;;
70138;SDS011;57507;43.056;0.150;2022-08-19T11:26:39;1.33;;;0.68;;
70138;SDS011;57507;43.056;0.150;2022-08-19T11:29:06;0.85;;;0.43;;
70138;SDS011;57507;43.056;0.150;2022-08-19T11:31:36;1.25;;;0.50;;
70138;SDS011;57507;43.056;0.150;2022-08-19T11:34:04;0.73;;;0.55;;
70138;SDS011;57507;43.056;0.150;2022-08-19T11:36:31;2.47;;;1.10;;
70138;SDS011;57507;43.056;0.150;2022-08-19T11:38:58;1.35;;;0.60;;
70138;SDS011;57507;43.056;0.150;2022-08-19T11:41:24;1.63;;;0.70;;
70138;SDS011;57507;43.056;0.150;2022-08-19T11:43:51;0.98;;;0.65;;
70138;SDS011;57507;43.056;0.150;2022-08-19T11:46:19;3.47;;;0.63;;
70138;SDS011;57507;43.056;0.150;2022-08-19T11:48:45;1.13;;;0.50;;
70138;SDS011;57507;43.056;0.150;2022-08-19T11:51:12;0.70;;;0.50;;
70138;SDS011;57507;43.056;0.150;2022-08-19T11:53:39;0.70;;;0.50;;
70138;SDS011;57507;43.056;0.150;2022-08-19T11:56:05;0.90;;;0.60;;
70138;SDS011;57507;43.056;0.150;2022-08-19T11:58:32;1.10;;;0.60;;
70138;SDS011;57507;43.056;0.150;2022-08-19T12:00:59;0.52;;;0.50;;
70138;SDS011;57507;43.056;0.150;2022-08-19T12:03:25;1.20;;;0.50;;
70138;SDS011;57507;43.056;0.150;2022-08-19T12:05:51;2.00;;;0.52;;
70138;SDS011;57507;43.056;0.150;2022-08-19T12:08:17;0.47;;;0.47;;
70138;SDS011;57507;43.056;0.150;2022-08-19T12:10:44;0.60;;;0.60;;
70138;SDS011;57507;43.056;0.150;2022-08-19T12:13:13;0.60;;;0.60;;
70138;SDS011;57507;43.056;0.150;2022-08-19T12:15:43;0.98;;;0.50;;
70138;SDS011;57507;43.056;0.150;2022-08-19T12:18:10;1.58;;;0.50;;
70138;SDS011;57507;43.056;0.150;2022-08-19T12:20:38;1.30;;;0.47;;
70138;SDS011;57507;43.056;0.150;2022-08-19T12:23:05;0.95;;;0.40;;
70138;SDS011;57507;43.056;0.150;2022-08-19T12:25:32;0.50;;;0.40;;
70138;SDS011;57507;43.056;0.150;2022-08-19T12:27:59;1.52;;;0.60;;
70138;SDS011;57507;43.056;0.150;2022-08-19T12:30:25;0.73;;;0.50;;
70138;SDS011;57507;43.056;0.150;2022-08-19T12:32:51;1.75;;;0.60;;
70138;SDS011;57507;43.056;0.150;2022-08-19T12:35:17;0.52;;;0.50;;
70138;SDS011;57507;43.056;0.150;2022-08-19T12:37:45;0.70;;;0.35;;
70138;SDS011;57507;43.056;0.150;2022-08-19T12:40:12;0.40;;;0.32;;
70138;SDS011;57507;43.056;0.150;2022-08-19T12:42:38;0.82;;;0.40;;
70138;SDS011;57507;43.056;0.150;2022-08-19T12:45:09;0.75;;;0.60;;
70138;SDS011;57507;43.056;0.150;2022-08-19T12:47:35;0.30;;;0.28;;
70138;SDS011;57507;43.056;0.150;2022-08-19T12:50:01;1.10;;;0.50;;
70138;SDS011;57507;43.056;0.150;2022-08-19T12:52:27;0.50;;;0.50;;
70138;SDS011;57507;43.056;0.150;2022-08-19T12:54:55;0.55;;;0.40;;
70138;SDS011;57507;43.056;0.150;2022-08-19T12:57:22;0.50;;;0.40;;
70138;SDS011;57507;43.056;0.150;2022-08-19T12:59:51;0.40;;;0.40;;
70138;SDS011;57507;43.056;0.150;2022-08-19T13:02:18;0.70;;;0.50;;
70138;SDS011;57507;43.056;0.150;2022-08-19T13:04:44;0.85;;;0.40;;
70138;SDS011;57507;43.056;0.150;2022-08-19T13:07:10;1.05;;;0.43;;
70138;SDS011;57507;43.056;0.150;2022-08-19T13:09:36;0.60;;;0.40;;
70138;SDS011;57507;43.056;0.150;2022-08-19T13:12:05;0.82;;;0.40;;
70138;SDS011;57507;43.056;0.150;2022-08-19T13:14:33;0.88;;;0.50;;
70138;SDS011;57507;43.056;0.150;2022-08-19T13:16:59;0.95;;;0.40;;
70138;SDS011;57507;43.056;0.150;2022-08-19T13:19:25;0.98;;;0.57;;
70138;SDS011;57507;43.056;0.150;2022-08-19T13:21:52;0.45;;;0.35;;
70138;SDS011;57507;43.056;0.150;2022-08-19T13:24:20;0.95;;;0.50;;
70138;SDS011;57507;43.056;0.150;2022-08-19T13:26:46;1.58;;;0.50;;
70138;SDS011;57507;43.056;0.150;2022-08-19T13:29:12;0.40;;;0.40;;
70138;SDS011;57507;43.056;0.150;2022-08-19T13:31:57;0.63;;;0.57;;
70138;SDS011;57507;43.056;0.150;2022-08-19T13:34:42;0.50;;;0.50;;
70138;SDS011;57507;43.056;0.150;2022-08-19T13:37:11;0.40;;;0.30;;
70138;SDS011;57507;43.056;0.150;2022-08-19T13:39:37;0.47;;;0.47;;
70138;SDS011;57507;43.056;0.150;2022-08-19T13:42:03;0.50;;;0.40;;
70138;SDS011;57507;43.056;0.150;2022-08-19T13:44:30;0.90;;;0.50;;
70138;SDS011;57507;43.056;0.150;2022-08-19T13:47:00;1.90;;;0.45;;
70138;SDS011;57507;43.056;0.150;2022-08-19T13:49:31;0.45;;;0.45;;
70138;SDS011;57507;43.056;0.150;2022-08-19T13:51:57;0.60;;;0.50;;
70138;SDS011;57507;43.056;0.150;2022-08-19T13:54:23;2.47;;;0.50;;
70138;SDS011;57507;43.056;0.150;2022-08-19T13:56:49;0.43;;;0.40;;
70138;SDS011;57507;43.056;0.150;2022-08-19T13:59:15;0.90;;;0.50;;
70138;SDS011;57507;43.056;0.150;2022-08-19T14:01:42;0.57;;;0.50;;
70138;SDS011;57507;43.056;0.150;2022-08-19T14:04:08;1.20;;;0.40;;
70138;SDS011;57507;43.056;0.150;2022-08-19T14:06:34;0.40;;;0.40;;
70138;SDS011;57507;43.056;0.150;2022-08-19T14:09:00;0.60;;;0.60;;
70138;SDS011;57507;43.056;0.150;2022-08-19T14:11:27;1.15;;;0.50;;
70138;SDS011;57507;43.056;0.150;2022-08-19T14:13:53;0.60;;;0.50;;
70138;SDS011;57507;43.056;0.150;2022-08-19T14:16:19;0.80;;;0.50;;
70138;SDS011;57507;43.056;0.150;2022-08-19T14:18:46;0.40;;;0.38;;
70138;SDS011;57507;43.056;0.150;2022-08-19T14:21:16;0.77;;;0.70;;
70138;SDS011;57507;43.056;0.150;2022-08-19T14:23:43;0.57;;;0.57;;
70138;SDS011;57507;43.056;0.150;2022-08-19T14:26:13;0.55;;;0.40;;
70138;SDS011;57507;43.056;0.150;2022-08-19T14:28:40;1.02;;;0.43;;
70138;SDS011;57507;43.056;0.150;2022-08-19T14:31:07;1.40;;;0.50;;
70138;SDS011;57507;43.056;0.150;2022-08-19T14:33:33;0.80;;;0.50;;
70138;SDS011;57507;43.056;0.150;2022-08-19T14:35:59;0.60;;;0.50;;
70138;SDS011;57507;43.056;0.150;2022-08-19T14:38:25;0.75;;;0.47;;
70138;SDS011;57507;43.056;0.150;2022-08-19T14:40:52;0.73;;;0.57;;
70138;SDS011;57507;43.056;0.150;2022-08-19T14:43:18;0.88;;;0.50;;
70138;SDS011;57507;43.056;0.150;2022-08-19T14:45:44;1.55;;;0.73;;
70138;SDS011;57507;43.056;0.150;2022-08-19T14:48:10;0.52;;;0.40;;
70138;SDS011;57507;43.056;0.150;2022-08-19T14:50:37;0.80;;;0.50;;
70138;SDS011;57507;43.056;0.150;2022-08-19T14:53:05;1.00;;;0.65;;
70138;SDS011;57507;43.056;0.150;2022-08-19T14:55:32;0.60;;;0.60;;
70138;SDS011;57507;43.056;0.150;2022-08-19T14:57:58;0.60;;;0.60;;
70138;SDS011;57507;43.056;0.150;2022-08-19T15:00:25;0.63;;;0.60;;
70138;SDS011;57507;43.056;0.150;2022-08-19T15:02:51;0.82;;;0.60;;
70138;SDS011;57507;43.056;0.150;2022-08-19T15:05:18;0.98;;;0.57;;
70138;SDS011;57507;43.056;0.150;2022-08-19T15:07:44;1.60;;;0.60;;
70138;SDS011;57507;43.056;0.150;2022-08-19T15:10:12;0.68;;;0.57;;
70138;SDS011;57507;43.056;0.150;2022-08-19T15:12:38;0.70;;;0.68;;
70138;SDS011;57507;43.056;0.150;2022-08-19T15:15:09;0.57;;;0.50;;
70138;SDS011;57507;43.056;0.150;2022-08-19T15:17:37;0.95;;;0.57;;
70138;SDS011;57507;43.056;0.150;2022-08-19T15:20:04;1.20;;;0.68;;
70138;SDS011;57507;43.056;0.150;2022-08-19T15:22:31;1.58;;;0.60;;
70138;SDS011;57507;43.056;0.150;2022-08-19T15:24:57;1.20;;;0.70;;
70138;SDS011;57507;43.056;0.150;2022-08-19T15:27:23;1.00;;;0.70;;
70138;SDS011;57507;43.056;0.150;2022-08-19T15:29:49;1.05;;;0.65;;
70138;SDS011;57507;43.056;0.150;2022-08-19T15:32:15;0.57;;;0.57;;
70138;SDS011;57507;43.056;0.150;2022-08-19T15:34:41;1.23;;;0.73;;
70138;SDS011;57507;43.056;0.150;2022-08-19T15:37:08;0.88;;;0.65;;
70138;SDS011;57507;43.056;0.150;2022-08-19T15:39:34;1.10;;;0.77;;
70138;SDS011;57507;43.056;0.150;2022-08-19T15:42:00;0.85;;;0.73;;
70138;SDS011;57507;43.056;0.150;2022-08-19T15:44:26;1.02;;;0.50;;
70138;SDS011;57507;43.056;0.150;2022-08-19T15:46:52;1.40;;;0.57;;
70138;SDS011;57507;43.056;0.150;2022-08-19T15:49:19;0.70;;;0.70;;
70138;SDS011;57507;43.056;0.150;2022-08-19T15:51:46;0.77;;;0.55;;
70138;SDS011;57507;43.056;0.150;2022-08-19T15:54:13;1.10;;;0.50;;
70138;SDS011;57507;43.056;0.150;2022-08-19T15:56:40;0.98;;;0.50;;
70138;SDS011;57507;43.056;0.150;2022-08-19T15:59:25;0.75;;;0.57;;
70138;SDS011;57507;43.056;0.150;2022-08-19T16:02:10;0.75;;;0.70;;
70138;SDS011;57507;43.056;0.150;2022-08-19T16:04:55;1.17;;;0.63;;
70138;SDS011;57507;43.056;0.150;2022-08-19T16:07:39;0.95;;;0.43;;
70138;SDS011;57507;43.056;0.150;2022-08-19T16:10:05;0.80;;;0.60;;
70138;SDS011;57507;43.056;0.150;2022-08-19T16:12:32;4.15;;;0.77;;
70138;SDS011;57507;43.056;0.150;2022-08-19T16:14:58;0.77;;;0.60;;
70138;SDS011;57507;43.056;0.150;2022-08-19T16:17:24;0.63;;;0.57;;
70138;SDS011;57507;43.056;0.150;2022-08-19T16:19:50;0.95;;;0.70;;
70138;SDS011;57507;43.056;0.150;2022-08-19T16:22:16;0.88;;;0.63;;
70138;SDS011;57507;43.056;0.150;2022-08-19T16:24:42;2.75;;;0.75;;